Gulf Shores, AL (36542)

12:14 AM CDT on September 24, 2014 (GMT -0500)
West Beach | Change Station
CLOSE
Current Station
Personal Weather Station
Location: Gulf Shores, AL
Elevation: 39 ft
Nearby Weather Stations

Elev 39 ft 30.25 °N, 87.72 °W | Updated 1 minute ago

Clear
Clear
71.2 °F
Feels Like 72 °F
N
5.0
Wind Variable Wind from NE
Gusts 5.0 mph

Today
High -- | Low -- °F
--% Chance of Precip.
Yesterday
High -- | Low -- °F
Precip. -- in
6:40 AM 6:44 PM
Waning Crescent, 0% visible
Pressure 30.10 in
Visibility 10.0 miles
Clouds Clear
Heat Index 72 °F
Dew Point 64 °F
Humidity 79%
Rainfall 0.00 in
Snow Depth Not available.
UV 0 out of 12
Pollen 8.90 out of 12
Air Quality Not available.
Flu Activity Not available.
METAR KJKA 240455Z AUTO 03004KT 10SM CLR 19/16 A3010 RMK AO2 T01900160 402750155

More Conditions Fewer Conditions

Pressure 30.10 in
Visibility 10.0 miles
Clouds Clear
Heat Index 72 °F
Dew Point 64 °F
Humidity 79%
Rainfall 0.00 in
Snow Depth Not available.
UV 0 out of 12
Pollen 8.90 out of 12
Air Quality Not available.
Flu Activity Not available.
METAR KJKA 240455Z AUTO 03004KT 10SM CLR 19/16 A3010 RMK AO2 T01900160 402750155

More Conditions Fewer Conditions

10-Day Weather Forecast

Almanac

Astronomy

Sep. 24, 2014 Rise Set
Actual Time 6:40 AM CDT 6:44 PM CDT
Civil Twilight 6:16 AM CDT 7:08 PM CDT
Nautical Twilight 5:48 AM CDT 7:36 PM CDT
Astronomical Twilight 5:20 AM CDT 8:04 PM CDT
Moon 6:57 AM CDT 7:00 PM CDT
Length of Visible Light 12h 52m
Length of Day
12h 04m
Tomorrow will be 1m 48s shorter.
Waning Crescent, 0% of the Moon is Illuminated
Today
Waning Crescent
Sep 24
New
Oct 1
First Quarter
Oct 8
Full
Oct 15
Last Quarter

Today's Extremes

State Highs State Lows

Community

WunderPhotos

Upload Photos

1,755,891 photos uploaded!

WunderBlogs® & News

Nearby

Snow Depth

Station Depth Elevation
No new snow has been reported.

Earthquake Activity

City Distance Mag. Time & Date
No recent earthquake activity has been reported nearby.
Minimum magnitude displayed is 2.5.

Coastal Water Temperatures

Place Temperature
No Stations Reporting

Nearby Weather Stations